createdAt,value
2022-12-28T00:00:13.594Z,996.53
2022-12-28T00:01:13.513Z,996.52
2022-12-28T00:02:13.457Z,996.52
2022-12-28T00:03:13.372Z,996.49
2022-12-28T00:04:13.233Z,996.48
2022-12-28T00:05:13.158Z,996.55
2022-12-28T00:06:13.060Z,996.48
2022-12-28T00:07:12.987Z,996.51
2022-12-28T00:08:12.889Z,996.49
2022-12-28T00:09:12.901Z,996.49
2022-12-28T00:10:12.717Z,996.52
2022-12-28T00:11:20.567Z,996.55
2022-12-28T00:12:12.551Z,996.48
2022-12-28T00:13:12.456Z,996.47
2022-12-28T00:14:12.490Z,996.50
2022-12-28T00:15:12.292Z,996.38
2022-12-28T00:16:12.242Z,996.39
2022-12-28T00:17:12.132Z,996.40
2022-12-28T00:18:12.029Z,996.36
2022-12-28T00:19:12.193Z,996.34
2022-12-28T00:20:11.859Z,996.37
2022-12-28T00:21:11.771Z,996.34
2022-12-28T00:22:11.689Z,996.35
2022-12-28T00:23:11.600Z,996.33
2022-12-28T00:24:11.512Z,996.32
2022-12-28T00:25:11.424Z,996.27
2022-12-28T00:26:11.375Z,996.25
2022-12-28T00:27:11.357Z,996.31
2022-12-28T00:28:11.170Z,996.28
2022-12-28T00:29:11.089Z,996.24
2022-12-28T00:30:11.201Z,996.21
2022-12-28T00:31:10.994Z,996.20
2022-12-28T00:32:10.825Z,996.21
2022-12-28T00:33:10.757Z,996.14
2022-12-28T00:34:10.666Z,996.10
2022-12-28T00:35:10.573Z,996.15
2022-12-28T00:36:10.493Z,996.13
2022-12-28T00:37:13.257Z,996.08
2022-12-28T00:38:10.311Z,996.09
2022-12-28T00:39:10.228Z,996.00
2022-12-28T00:40:10.139Z,995.98
2022-12-28T00:41:10.068Z,995.97
2022-12-28T00:42:09.973Z,995.95
2022-12-28T00:43:09.886Z,995.88
2022-12-28T00:44:10.000Z,995.87
2022-12-28T00:45:09.711Z,995.87
2022-12-28T00:46:09.663Z,995.88
2022-12-28T00:47:09.541Z,995.87
2022-12-28T00:48:09.456Z,995.86
2022-12-28T00:49:09.412Z,995.88
2022-12-28T00:50:09.284Z,995.88
2022-12-28T00:51:09.230Z,995.84
2022-12-28T00:52:09.111Z,995.86
2022-12-28T00:53:09.026Z,995.84
2022-12-28T00:54:08.960Z,995.84
2022-12-28T00:55:08.861Z,995.78
2022-12-28T00:56:08.771Z,995.79
2022-12-28T00:57:08.691Z,995.75
2022-12-28T00:58:08.597Z,995.74
2022-12-28T00:59:08.513Z,995.67
2022-12-28T01:00:08.432Z,995.67
2022-12-28T01:01:08.508Z,995.66
2022-12-28T01:02:08.390Z,995.63
2022-12-28T01:03:08.220Z,995.60
2022-12-28T01:04:08.087Z,995.55
2022-12-28T01:05:08.069Z,995.54
2022-12-28T01:06:07.950Z,995.56
2022-12-28T01:07:07.833Z,995.49
2022-12-28T01:08:07.746Z,995.51
2022-12-28T01:09:07.676Z,995.42
2022-12-28T01:10:07.585Z,995.44
2022-12-28T01:11:07.487Z,995.49
2022-12-28T01:12:07.406Z,995.47
2022-12-28T01:13:07.317Z,995.43
2022-12-28T01:14:07.232Z,995.40
2022-12-28T01:15:07.144Z,995.36
2022-12-28T01:16:07.122Z,995.36
2022-12-28T01:17:06.973Z,995.30
2022-12-28T01:18:06.890Z,995.26
2022-12-28T01:19:06.804Z,995.28
2022-12-28T01:20:06.749Z,995.25
2022-12-28T01:21:06.650Z,995.24
2022-12-28T01:22:06.550Z,995.11
2022-12-28T01:23:06.463Z,995.15
2022-12-28T01:24:06.375Z,995.12
2022-12-28T01:25:06.299Z,995.17
2022-12-28T01:26:06.209Z,995.14
2022-12-28T01:27:06.115Z,995.16
2022-12-28T01:28:06.035Z,995.14
2022-12-28T01:29:05.965Z,995.18
2022-12-28T01:30:05.864Z,995.19
2022-12-28T01:31:05.777Z,995.13
2022-12-28T01:32:05.744Z,995.20
2022-12-28T01:33:05.612Z,995.16
2022-12-28T01:34:05.534Z,995.16
2022-12-28T01:35:05.435Z,995.24
2022-12-28T01:36:05.351Z,995.14
2022-12-28T01:37:05.289Z,995.14
2022-12-28T01:38:05.183Z,995.13
2022-12-28T01:39:05.093Z,995.09
2022-12-28T01:40:05.012Z,995.14
2022-12-28T01:41:04.924Z,995.08
2022-12-28T01:42:04.840Z,995.10
2022-12-28T01:43:04.755Z,995.06
2022-12-28T01:44:04.686Z,995.03
2022-12-28T01:45:04.585Z,994.97
2022-12-28T01:46:04.611Z,994.91
2022-12-28T01:47:04.423Z,994.86
2022-12-28T01:48:04.330Z,994.87
2022-12-28T01:49:04.247Z,994.81
2022-12-28T01:50:04.157Z,994.84
2022-12-28T01:51:04.082Z,994.83
2022-12-28T01:52:04.005Z,994.79
2022-12-28T01:53:04.031Z,994.80
2022-12-28T01:54:03.817Z,994.78
2022-12-28T01:55:03.731Z,994.75
2022-12-28T01:56:03.646Z,994.65
2022-12-28T01:57:03.565Z,994.67
2022-12-28T01:58:03.504Z,994.75
2022-12-28T01:59:03.398Z,994.67
2022-12-28T02:00:03.309Z,994.64
2022-12-28T02:01:03.337Z,994.69
2022-12-28T02:02:03.540Z,994.70
2022-12-28T02:03:03.145Z,994.64
2022-12-28T02:04:02.986Z,994.62
2022-12-28T02:05:02.889Z,994.71
2022-12-28T02:06:02.801Z,994.70
2022-12-28T02:07:02.714Z,994.68
2022-12-28T02:08:02.681Z,994.69
2022-12-28T02:09:02.567Z,994.63
2022-12-28T02:10:44.493Z,994.58
2022-12-28T02:11:02.379Z,994.65
2022-12-28T02:12:02.313Z,994.71
2022-12-28T02:13:02.247Z,994.53
2022-12-28T02:14:02.119Z,994.50
2022-12-28T02:15:02.187Z,994.51
2022-12-28T02:16:01.950Z,994.51
2022-12-28T02:17:01.921Z,994.46
2022-12-28T02:18:01.783Z,994.47
2022-12-28T02:19:01.695Z,994.38
2022-12-28T02:20:01.619Z,994.39
2022-12-28T02:21:01.526Z,994.39
2022-12-28T02:22:01.438Z,994.34
2022-12-28T02:23:01.354Z,994.30
2022-12-28T02:24:01.276Z,994.25
2022-12-28T02:25:12.831Z,994.24
2022-12-28T02:26:01.104Z,994.23
2022-12-28T02:27:01.015Z,994.26
2022-12-28T02:28:00.932Z,994.20
2022-12-28T02:29:00.846Z,994.16
2022-12-28T02:30:00.759Z,994.12
2022-12-28T02:31:00.752Z,994.14
2022-12-28T02:32:00.590Z,994.09
2022-12-28T02:33:00.511Z,994.13
2022-12-28T02:34:00.443Z,994.11
2022-12-28T02:35:00.338Z,994.11
2022-12-28T02:36:00.251Z,994.13
2022-12-28T02:37:00.200Z,994.17
2022-12-28T02:38:00.082Z,994.22
2022-12-28T02:38:59.998Z,994.22
2022-12-28T02:39:59.915Z,994.24
2022-12-28T02:40:59.858Z,994.25
2022-12-28T02:41:59.745Z,994.23
2022-12-28T02:42:59.671Z,994.32
2022-12-28T02:43:59.576Z,994.24
2022-12-28T02:44:59.490Z,994.26
2022-12-28T02:45:59.458Z,994.27
2022-12-28T02:46:59.322Z,994.21
2022-12-28T02:47:59.238Z,994.29
2022-12-28T02:48:59.167Z,994.27
2022-12-28T02:49:59.073Z,994.25
2022-12-28T02:50:58.984Z,994.22
2022-12-28T02:51:58.896Z,994.27
2022-12-28T02:52:58.813Z,994.20
2022-12-28T02:53:58.738Z,994.23
2022-12-28T02:54:58.641Z,994.23
2022-12-28T02:55:58.559Z,994.25
2022-12-28T02:56:58.492Z,994.23
2022-12-28T02:57:58.391Z,994.22
2022-12-28T02:58:58.321Z,994.26
2022-12-28T02:59:58.479Z,994.27
2022-12-28T03:00:58.302Z,994.21
2022-12-28T03:01:58.161Z,994.19
2022-12-28T03:02:58.032Z,994.24
2022-12-28T03:03:57.881Z,994.22
2022-12-28T03:04:57.807Z,994.19
2022-12-28T03:05:57.719Z,994.15
2022-12-28T03:06:57.631Z,994.14
2022-12-28T03:07:57.557Z,994.18
2022-12-28T03:08:57.460Z,994.15
2022-12-28T03:09:57.376Z,994.07
2022-12-28T03:10:57.309Z,994.10
2022-12-28T03:11:57.203Z,994.14
2022-12-28T03:12:57.166Z,994.12
2022-12-28T03:13:57.035Z,994.06
2022-12-28T03:14:56.951Z,994.07
2022-12-28T03:15:56.904Z,994.03
2022-12-28T03:16:56.931Z,994.04
2022-12-28T03:17:56.703Z,993.93
2022-12-28T03:18:56.627Z,993.96
2022-12-28T03:19:56.531Z,993.92
2022-12-28T03:20:56.444Z,993.98
2022-12-28T03:21:56.609Z,994.00
2022-12-28T03:22:56.274Z,993.96
2022-12-28T03:23:56.191Z,994.03
2022-12-28T03:24:56.110Z,993.97
2022-12-28T03:25:56.021Z,993.99
2022-12-28T03:26:55.937Z,993.96
2022-12-28T03:27:55.857Z,993.99
2022-12-28T03:28:55.887Z,993.94
2022-12-28T03:29:55.685Z,993.99
2022-12-28T03:30:55.633Z,994.00
2022-12-28T03:31:55.515Z,994.06
2022-12-28T03:32:55.432Z,994.10
2022-12-28T03:33:55.346Z,994.10
2022-12-28T03:34:55.265Z,994.11
2022-12-28T03:35:55.182Z,994.00
2022-12-28T03:36:55.096Z,993.92
2022-12-28T03:37:55.018Z,993.91
2022-12-28T03:38:54.923Z,993.84
2022-12-28T03:39:55.001Z,993.84
2022-12-28T03:40:55.056Z,993.85
2022-12-28T03:41:54.672Z,993.78
2022-12-28T03:42:54.593Z,993.80
2022-12-28T03:43:54.506Z,993.75
2022-12-28T03:44:54.487Z,993.77
2022-12-28T03:45:54.460Z,993.71
2022-12-28T03:46:54.250Z,993.69
2022-12-28T03:47:54.315Z,993.68
2022-12-28T03:48:54.079Z,993.67
2022-12-28T03:49:53.995Z,993.65
2022-12-28T03:50:53.916Z,993.67
2022-12-28T03:51:53.842Z,993.66
2022-12-28T03:52:53.740Z,993.72
2022-12-28T03:53:53.658Z,993.55
2022-12-28T03:54:53.568Z,993.59
2022-12-28T03:55:53.487Z,993.56
2022-12-28T03:56:53.427Z,993.59
2022-12-28T03:57:53.325Z,993.55
2022-12-28T03:58:53.238Z,993.46
2022-12-28T03:59:53.149Z,993.53
2022-12-28T04:00:53.087Z,993.43
2022-12-28T04:01:53.176Z,993.45
2022-12-28T04:02:52.989Z,993.43
2022-12-28T04:03:52.815Z,993.45
2022-12-28T04:04:52.727Z,993.43
2022-12-28T04:05:52.651Z,993.48
2022-12-28T04:06:52.553Z,993.35
2022-12-28T04:07:52.723Z,993.36
2022-12-28T04:08:52.406Z,993.43
2022-12-28T04:09:52.311Z,993.41
2022-12-28T04:10:52.213Z,993.39
2022-12-28T04:11:52.128Z,993.32
2022-12-28T04:12:52.044Z,993.32
2022-12-28T04:13:51.964Z,993.32
2022-12-28T04:14:51.877Z,993.30
2022-12-28T04:15:51.814Z,993.30
2022-12-28T04:16:51.726Z,993.26
2022-12-28T04:17:51.647Z,993.31
2022-12-28T04:18:51.538Z,993.29
2022-12-28T04:19:51.451Z,993.26
2022-12-28T04:20:51.367Z,993.22
2022-12-28T04:21:51.283Z,993.19
2022-12-28T04:22:51.297Z,993.17
2022-12-28T04:23:51.115Z,993.15
2022-12-28T04:24:51.036Z,993.21
2022-12-28T04:25:50.943Z,993.15
2022-12-28T04:26:50.859Z,993.12
2022-12-28T04:27:50.772Z,993.19
2022-12-28T04:28:50.691Z,993.23
2022-12-28T04:29:50.603Z,993.18
2022-12-28T04:30:50.518Z,993.22
2022-12-28T04:31:50.432Z,993.18
2022-12-28T04:32:50.385Z,993.22
2022-12-28T04:33:50.265Z,993.22
2022-12-28T04:34:50.178Z,993.27
2022-12-28T04:35:50.298Z,993.25
2022-12-28T04:36:50.015Z,993.11
2022-12-28T04:37:49.932Z,993.19
2022-12-28T04:38:49.849Z,993.12
2022-12-28T04:39:55.892Z,993.13
2022-12-28T04:40:49.671Z,993.15
2022-12-28T04:41:49.601Z,993.12
2022-12-28T04:42:49.501Z,993.13
2022-12-28T04:43:49.419Z,993.10
2022-12-28T04:44:49.342Z,993.08
2022-12-28T04:45:49.250Z,993.06
2022-12-28T04:46:49.224Z,993.19
2022-12-28T04:47:49.079Z,993.07
2022-12-28T04:48:49.021Z,993.10
2022-12-28T04:49:48.918Z,993.06
2022-12-28T04:50:48.825Z,993.10
2022-12-28T04:51:48.746Z,993.08
2022-12-28T04:52:48.660Z,993.12
2022-12-28T04:53:48.579Z,993.12
2022-12-28T04:54:48.489Z,992.98
2022-12-28T04:55:48.407Z,992.94
2022-12-28T04:56:48.323Z,993.02
2022-12-28T04:57:48.240Z,992.98
2022-12-28T04:58:48.165Z,992.94
2022-12-28T04:59:48.067Z,992.96
2022-12-28T05:00:48.152Z,992.97
2022-12-28T05:01:48.043Z,992.94
2022-12-28T05:02:47.868Z,992.96
2022-12-28T05:03:54.522Z,992.97
2022-12-28T05:04:47.676Z,992.99
2022-12-28T05:05:47.562Z,993.01
2022-12-28T05:06:47.476Z,992.99
2022-12-28T05:07:47.405Z,992.97
2022-12-28T05:08:47.318Z,992.92
2022-12-28T05:09:47.226Z,992.95
2022-12-28T05:10:47.150Z,992.96
2022-12-28T05:11:47.075Z,992.87
2022-12-28T05:12:46.971Z,992.90
2022-12-28T05:13:46.906Z,992.89
2022-12-28T05:14:46.808Z,992.87
2022-12-28T05:15:46.819Z,992.92
2022-12-28T05:16:46.631Z,992.93
2022-12-28T05:17:46.551Z,992.88
2022-12-28T05:18:46.464Z,992.87
2022-12-28T05:19:46.391Z,992.91
2022-12-28T05:20:46.315Z,992.90
2022-12-28T05:21:46.219Z,992.90
2022-12-28T05:22:46.125Z,992.88
2022-12-28T05:23:46.044Z,992.88
2022-12-28T05:24:45.959Z,992.83
2022-12-28T05:25:45.875Z,992.80
2022-12-28T05:26:45.788Z,992.82
2022-12-28T05:27:45.708Z,992.83
2022-12-28T05:28:45.623Z,992.79
2022-12-28T05:29:45.560Z,992.79
2022-12-28T05:30:45.455Z,992.80
2022-12-28T05:31:45.423Z,992.80
2022-12-28T05:32:45.280Z,992.80
2022-12-28T05:33:45.197Z,992.78
2022-12-28T05:34:45.117Z,992.79
2022-12-28T05:35:45.029Z,992.78
2022-12-28T05:36:44.968Z,992.80
2022-12-28T05:37:44.863Z,992.73
2022-12-28T05:38:44.785Z,992.67
2022-12-28T05:39:44.692Z,992.66
2022-12-28T05:40:44.612Z,992.60
2022-12-28T05:41:44.539Z,992.61
2022-12-28T05:42:49.662Z,992.63
2022-12-28T05:43:44.353Z,992.55
2022-12-28T05:44:44.268Z,992.55
2022-12-28T05:45:44.191Z,992.50
2022-12-28T05:46:44.139Z,992.50
2022-12-28T05:47:44.013Z,992.59
2022-12-28T05:48:44.078Z,992.52
2022-12-28T05:49:43.848Z,992.50
2022-12-28T05:50:43.759Z,992.54
2022-12-28T05:51:43.673Z,992.49
2022-12-28T05:52:43.621Z,992.45
2022-12-28T05:53:43.513Z,992.42
2022-12-28T05:54:43.426Z,992.49
2022-12-28T05:55:43.352Z,992.48
2022-12-28T05:56:43.257Z,992.35
2022-12-28T05:57:43.171Z,992.38
2022-12-28T05:58:43.092Z,992.32
2022-12-28T05:59:43.011Z,992.27
2022-12-28T06:00:42.920Z,992.38
2022-12-28T06:01:42.955Z,992.43
2022-12-28T06:02:42.832Z,992.40
2022-12-28T06:03:42.713Z,992.45
2022-12-28T06:04:42.574Z,992.37
2022-12-28T06:05:42.494Z,992.46
2022-12-28T06:06:42.406Z,992.44
2022-12-28T06:07:42.321Z,992.39
2022-12-28T06:08:42.255Z,992.43
2022-12-28T06:09:42.153Z,992.37
2022-12-28T06:10:42.218Z,992.34
2022-12-28T06:11:41.997Z,992.33
2022-12-28T06:12:41.898Z,992.35
2022-12-28T06:13:41.825Z,992.33
2022-12-28T06:14:41.739Z,992.25
2022-12-28T06:15:41.648Z,992.26
2022-12-28T06:16:41.598Z,992.29
2022-12-28T06:17:41.483Z,992.13
2022-12-28T06:18:41.393Z,992.14
2022-12-28T06:19:41.306Z,992.16
2022-12-28T06:20:41.222Z,992.16
2022-12-28T06:21:41.139Z,992.21
2022-12-28T06:22:41.155Z,992.15
2022-12-28T06:23:40.974Z,992.19
2022-12-28T06:24:40.911Z,992.22
2022-12-28T06:25:40.801Z,992.16
2022-12-28T06:26:40.773Z,992.20
2022-12-28T06:27:40.633Z,992.12
2022-12-28T06:28:40.558Z,992.14
2022-12-28T06:29:40.466Z,992.11
2022-12-28T06:30:40.375Z,992.07
2022-12-28T06:31:40.341Z,992.06
2022-12-28T06:32:40.210Z,992.07
2022-12-28T06:33:40.128Z,992.12
2022-12-28T06:34:40.191Z,992.09
2022-12-28T06:35:39.960Z,992.06
2022-12-28T06:36:39.873Z,992.13
2022-12-28T06:37:39.809Z,992.15
2022-12-28T06:38:39.703Z,992.09
2022-12-28T06:39:39.629Z,992.10
2022-12-28T06:41:11.796Z,992.13
2022-12-28T06:41:39.463Z,991.99
2022-12-28T06:42:39.369Z,992.04
2022-12-28T06:43:39.285Z,992.05
2022-12-28T06:44:44.373Z,992.05
2022-12-28T06:45:39.143Z,991.97
2022-12-28T06:46:39.028Z,992.00
2022-12-28T06:47:38.944Z,992.01
2022-12-28T06:48:38.877Z,991.94
2022-12-28T06:49:38.829Z,992.04
2022-12-28T06:50:40.335Z,991.99
2022-12-28T06:51:38.698Z,991.93
2022-12-28T06:52:38.536Z,992.01
2022-12-28T06:53:38.450Z,991.92
2022-12-28T06:54:38.354Z,991.99
2022-12-28T06:55:38.271Z,991.98
2022-12-28T06:56:38.211Z,992.04
2022-12-28T06:57:38.103Z,991.93
2022-12-28T06:58:38.016Z,991.89
2022-12-28T06:59:37.936Z,991.86
2022-12-28T07:00:37.857Z,991.85
2022-12-28T07:01:38.086Z,991.86
2022-12-28T07:02:37.822Z,991.83
2022-12-28T07:03:37.597Z,991.88
2022-12-28T07:04:37.526Z,991.80
2022-12-28T07:05:37.429Z,991.80
2022-12-28T07:06:37.345Z,991.77
2022-12-28T07:07:37.268Z,991.76
2022-12-28T07:08:37.179Z,991.76
2022-12-28T07:09:37.095Z,991.80
2022-12-28T07:10:37.011Z,991.77
2022-12-28T07:11:36.930Z,991.82
2022-12-28T07:12:36.873Z,991.81
2022-12-28T07:13:36.755Z,991.78
2022-12-28T07:14:36.698Z,991.79
2022-12-28T07:15:36.585Z,991.79
2022-12-28T07:17:15.950Z,991.89
2022-12-28T07:18:15.866Z,991.89
2022-12-28T07:19:16.031Z,991.87
2022-12-28T07:20:15.701Z,991.88
2022-12-28T07:21:15.771Z,991.93
2022-12-28T07:22:15.533Z,991.96
2022-12-28T07:23:15.459Z,991.92
2022-12-28T07:24:15.359Z,991.88
2022-12-28T07:25:15.280Z,991.90
2022-12-28T07:26:15.194Z,991.79
2022-12-28T07:27:15.115Z,991.82
2022-12-28T07:28:15.053Z,991.84
2022-12-28T07:29:14.937Z,991.85
2022-12-28T07:30:14.857Z,991.87
2022-12-28T07:31:14.839Z,991.92
2022-12-28T07:32:14.697Z,991.91
2022-12-28T07:33:14.600Z,991.88
2022-12-28T07:34:14.526Z,991.83
2022-12-28T07:35:14.446Z,992.01
2022-12-28T07:36:14.352Z,991.90
2022-12-28T07:37:14.270Z,991.92
2022-12-28T07:38:20.972Z,991.92
2022-12-28T07:39:14.117Z,991.92
2022-12-28T07:40:14.023Z,991.89
2022-12-28T07:41:13.932Z,991.93
2022-12-28T07:42:13.848Z,991.93
2022-12-28T07:43:13.762Z,991.97
2022-12-28T07:44:13.699Z,991.92
2022-12-28T07:45:13.598Z,991.91
2022-12-28T07:46:13.574Z,991.91
2022-12-28T07:47:13.510Z,991.85
2022-12-28T07:48:13.345Z,991.87
2022-12-28T07:49:13.276Z,991.87
2022-12-28T07:50:13.176Z,991.86
2022-12-28T07:51:13.094Z,991.92
2022-12-28T07:52:13.005Z,991.89
2022-12-28T07:53:16.059Z,991.95
2022-12-28T07:54:12.842Z,991.94
2022-12-28T07:55:12.759Z,991.98
2022-12-28T07:56:12.674Z,991.91
2022-12-28T07:57:12.591Z,991.88
2022-12-28T07:58:12.507Z,991.87
2022-12-28T07:59:12.421Z,991.87
2022-12-28T08:00:12.361Z,991.85
2022-12-28T08:01:12.546Z,991.85
2022-12-28T08:02:12.291Z,991.82
2022-12-28T08:03:12.154Z,991.87
2022-12-28T08:04:12.006Z,991.82
2022-12-28T08:05:11.920Z,991.81
2022-12-28T08:06:11.843Z,991.78
2022-12-28T08:07:11.757Z,991.67
2022-12-28T08:08:11.672Z,991.71
2022-12-28T08:09:11.691Z,991.75
2022-12-28T08:10:11.509Z,991.75
2022-12-28T08:11:11.424Z,991.69
2022-12-28T08:12:11.336Z,991.71
2022-12-28T08:13:11.251Z,991.69
2022-12-28T08:14:11.170Z,991.68
2022-12-28T08:15:11.086Z,991.64
2022-12-28T08:16:11.096Z,991.66
2022-12-28T08:17:12.824Z,991.67
2022-12-28T08:18:10.835Z,991.58
2022-12-28T08:19:10.898Z,991.68
2022-12-28T08:20:10.667Z,991.55
2022-12-28T08:21:10.591Z,991.61
2022-12-28T08:22:10.503Z,991.64
2022-12-28T08:23:10.412Z,991.60
2022-12-28T08:24:10.333Z,991.62
2022-12-28T08:25:10.248Z,991.57
2022-12-28T08:26:10.212Z,991.61
2022-12-28T08:27:10.078Z,991.61
2022-12-28T08:28:09.998Z,991.66
2022-12-28T08:29:09.916Z,991.61
2022-12-28T08:30:09.825Z,991.58
2022-12-28T08:31:09.852Z,991.60
2022-12-28T08:32:09.694Z,991.62
2022-12-28T08:33:09.579Z,991.56
2022-12-28T08:34:09.512Z,991.63
2022-12-28T08:35:09.424Z,991.57
2022-12-28T08:36:09.357Z,991.64
2022-12-28T08:37:09.304Z,991.63
2022-12-28T08:38:09.165Z,991.61
2022-12-28T08:39:09.076Z,991.57
2022-12-28T08:40:08.996Z,991.60
2022-12-28T08:41:08.923Z,991.50
2022-12-28T08:42:08.828Z,991.66
2022-12-28T08:43:08.743Z,991.63
2022-12-28T08:44:08.660Z,991.64
2022-12-28T08:45:08.576Z,991.61
2022-12-28T08:46:08.620Z,991.57
2022-12-28T08:47:08.465Z,991.62
2022-12-28T08:48:08.352Z,991.63
2022-12-28T08:49:08.242Z,991.57
2022-12-28T08:50:11.770Z,991.58
2022-12-28T08:51:08.074Z,991.66
2022-12-28T08:52:08.024Z,991.60
2022-12-28T08:53:07.912Z,991.52
2022-12-28T08:54:07.826Z,991.51
2022-12-28T08:55:07.748Z,991.51
2022-12-28T08:56:07.657Z,991.47
2022-12-28T08:57:07.571Z,991.48
2022-12-28T08:58:07.498Z,991.52
2022-12-28T08:59:07.425Z,991.44
2022-12-28T09:00:07.325Z,991.52
2022-12-28T09:01:07.420Z,991.48
2022-12-28T09:02:07.238Z,991.49
2022-12-28T09:03:07.289Z,991.52
2022-12-28T09:04:07.010Z,991.51
2022-12-28T09:05:06.906Z,991.49
2022-12-28T09:06:06.826Z,991.53
2022-12-28T09:07:06.747Z,991.56
2022-12-28T09:08:06.663Z,991.55
2022-12-28T09:09:07.154Z,991.55
2022-12-28T09:10:06.537Z,991.55
2022-12-28T09:11:06.421Z,991.57
2022-12-28T09:12:06.325Z,991.64
2022-12-28T09:13:06.245Z,991.60
2022-12-28T09:14:06.162Z,991.62
2022-12-28T09:15:06.072Z,991.62
2022-12-28T09:16:06.018Z,991.61
2022-12-28T09:17:05.957Z,991.60
2022-12-28T09:18:06.025Z,991.57
2022-12-28T09:19:05.751Z,991.64
2022-12-28T09:20:05.831Z,991.55
2022-12-28T09:21:05.577Z,991.71
2022-12-28T09:22:05.494Z,991.68
2022-12-28T09:23:05.414Z,991.72
2022-12-28T09:24:05.330Z,991.61
2022-12-28T09:25:05.268Z,991.66
2022-12-28T09:26:05.163Z,991.71
2022-12-28T09:27:05.083Z,991.66
2022-12-28T09:28:05.006Z,991.74
2022-12-28T09:29:04.913Z,991.68
2022-12-28T09:30:04.832Z,991.66
2022-12-28T09:31:04.888Z,991.70
2022-12-28T09:32:04.666Z,991.64
2022-12-28T09:33:04.587Z,991.69
2022-12-28T09:35:04.433Z,991.63
2022-12-28T09:36:04.360Z,991.62
2022-12-28T09:37:04.258Z,991.58
2022-12-28T09:38:04.178Z,991.56
2022-12-28T09:39:04.177Z,991.67
2022-12-28T09:40:04.002Z,991.56
2022-12-28T09:41:03.920Z,991.58
2022-12-28T09:42:03.852Z,991.60
2022-12-28T09:43:03.766Z,991.56
2022-12-28T09:44:03.670Z,991.55
2022-12-28T09:45:03.591Z,991.51
2022-12-28T09:46:03.552Z,991.52
2022-12-28T09:47:03.657Z,991.57
2022-12-28T09:48:03.380Z,991.47
2022-12-28T09:49:03.257Z,991.54
2022-12-28T09:50:03.183Z,991.51
2022-12-28T09:51:03.101Z,991.59
2022-12-28T09:52:03.036Z,991.59
2022-12-28T09:53:02.927Z,991.47
2022-12-28T09:54:02.850Z,991.43
2022-12-28T09:55:02.770Z,991.41
2022-12-28T09:56:02.683Z,991.41
2022-12-28T09:57:02.599Z,991.37
2022-12-28T09:58:02.521Z,991.33
2022-12-28T09:59:02.586Z,991.38
2022-12-28T10:00:02.375Z,991.48
2022-12-28T10:01:02.333Z,991.36
2022-12-28T10:02:02.349Z,991.35
2022-12-28T10:03:02.228Z,991.35
2022-12-28T10:04:02.025Z,991.35
2022-12-28T10:05:01.943Z,991.35
2022-12-28T10:06:01.876Z,991.31
2022-12-28T10:07:01.797Z,991.30
2022-12-28T10:08:01.721Z,991.31
2022-12-28T10:09:01.627Z,991.44
2022-12-28T10:10:01.541Z,991.29
2022-12-28T10:11:01.458Z,991.28
2022-12-28T10:12:01.384Z,991.27
2022-12-28T10:13:01.392Z,991.30
2022-12-28T10:14:01.219Z,991.28
2022-12-28T10:15:01.130Z,991.34
2022-12-28T10:16:01.110Z,991.37
2022-12-28T10:17:00.967Z,991.31
2022-12-28T10:18:00.888Z,991.26
2022-12-28T10:19:00.824Z,991.37
2022-12-28T10:20:00.725Z,991.27
2022-12-28T10:21:00.642Z,991.25
2022-12-28T10:22:00.590Z,991.27
2022-12-28T10:23:00.483Z,991.26
2022-12-28T10:24:31.063Z,991.28
2022-12-28T10:25:00.328Z,991.27
2022-12-28T10:26:00.444Z,991.25
2022-12-28T10:27:00.160Z,991.28
2022-12-28T10:28:00.079Z,991.22
2022-12-28T10:28:59.993Z,991.28
2022-12-28T10:29:59.920Z,991.27
2022-12-28T10:30:59.885Z,991.31
2022-12-28T10:31:59.756Z,991.21
2022-12-28T10:33:03.044Z,991.26
2022-12-28T10:33:59.604Z,991.28
2022-12-28T10:34:59.528Z,991.20
2022-12-28T10:35:59.442Z,991.19
2022-12-28T10:36:59.362Z,991.13
2022-12-28T10:37:59.286Z,991.17
2022-12-28T10:38:59.208Z,991.15
2022-12-28T10:39:59.155Z,991.21
2022-12-28T10:40:59.045Z,991.15
2022-12-28T10:41:58.969Z,991.13
2022-12-28T10:42:58.887Z,991.14
2022-12-28T10:44:37.550Z,990.99
2022-12-28T10:44:58.729Z,991.06
2022-12-28T10:45:58.650Z,991.01
2022-12-28T10:46:58.624Z,990.99
2022-12-28T10:47:58.498Z,990.96
2022-12-28T10:48:58.412Z,991.06
2022-12-28T10:50:58.257Z,991.00
2022-12-28T10:51:58.177Z,991.00
2022-12-28T10:52:58.113Z,990.97
2022-12-28T10:53:58.025Z,990.95
2022-12-28T10:55:08.464Z,990.91
2022-12-28T10:55:57.883Z,990.91
2022-12-28T10:56:57.782Z,990.90
2022-12-28T10:58:28.582Z,990.89
2022-12-28T10:58:57.629Z,990.90
2022-12-28T10:59:57.549Z,990.80
2022-12-28T11:00:57.674Z,990.76
2022-12-28T11:01:57.720Z,990.71
2022-12-28T11:02:57.454Z,990.77
2022-12-28T11:03:57.246Z,990.70
2022-12-28T11:04:57.160Z,990.69
2022-12-28T11:05:57.662Z,990.68
2022-12-28T11:06:57.164Z,990.64
2022-12-28T11:07:56.925Z,990.63
2022-12-28T11:08:56.846Z,990.68
2022-12-28T11:09:56.768Z,990.73
2022-12-28T11:10:56.692Z,990.69
2022-12-28T11:11:56.635Z,990.73
2022-12-28T11:12:56.532Z,990.64
2022-12-28T11:13:56.453Z,990.67
2022-12-28T11:14:56.384Z,990.62
2022-12-28T11:15:56.350Z,990.61
2022-12-28T11:16:56.218Z,990.71
2022-12-28T11:17:56.137Z,990.61
2022-12-28T11:18:56.056Z,990.61
2022-12-28T11:19:56.018Z,990.53
2022-12-28T11:20:55.899Z,990.54
2022-12-28T11:21:55.819Z,990.49
2022-12-28T11:22:55.737Z,990.54
2022-12-28T11:23:55.670Z,990.53
2022-12-28T11:24:55.731Z,990.45
2022-12-28T11:25:55.504Z,990.52
2022-12-28T11:26:55.421Z,990.37
2022-12-28T11:27:55.364Z,990.41
2022-12-28T11:28:55.372Z,990.39
2022-12-28T11:29:55.188Z,990.36
2022-12-28T11:30:55.109Z,990.34
2022-12-28T11:31:55.081Z,990.34
2022-12-28T11:32:54.944Z,990.43
2022-12-28T11:33:54.861Z,990.38
2022-12-28T11:34:54.783Z,990.40
2022-12-28T11:35:59.101Z,990.36
2022-12-28T11:36:54.627Z,990.39
2022-12-28T11:37:54.542Z,990.41
2022-12-28T11:38:54.468Z,990.29
2022-12-28T11:39:54.391Z,990.35
2022-12-28T11:40:54.314Z,990.30
2022-12-28T11:42:27.691Z,990.22
2022-12-28T11:42:54.148Z,990.29
2022-12-28T11:43:54.102Z,990.26
2022-12-28T11:44:54.083Z,990.29
2022-12-28T11:45:54.025Z,990.22
2022-12-28T11:46:53.827Z,990.19
2022-12-28T11:47:53.739Z,990.19
2022-12-28T11:48:53.659Z,990.17
2022-12-28T11:49:53.582Z,990.22
2022-12-28T11:50:53.505Z,990.24
2022-12-28T11:51:53.420Z,990.22
2022-12-28T11:52:53.339Z,990.15
2022-12-28T11:53:53.260Z,990.25
2022-12-28T11:54:53.178Z,990.20
2022-12-28T11:55:53.105Z,990.20
2022-12-28T11:56:53.022Z,990.18
2022-12-28T11:57:52.939Z,990.08
2022-12-28T11:58:52.860Z,990.11
2022-12-28T11:59:52.813Z,990.13
2022-12-28T12:00:52.710Z,990.09
2022-12-28T12:01:52.726Z,990.18
2022-12-28T12:02:52.540Z,990.09
2022-12-28T12:03:52.460Z,990.06
2022-12-28T12:04:52.379Z,990.02
2022-12-28T12:05:52.307Z,990.02
2022-12-28T12:06:52.217Z,990.01
2022-12-28T12:07:52.137Z,989.98
2022-12-28T12:08:52.054Z,989.99
2022-12-28T12:09:51.974Z,989.99
2022-12-28T12:10:51.901Z,989.92
2022-12-28T12:11:51.824Z,989.96
2022-12-28T12:12:51.735Z,989.89
2022-12-28T12:13:51.666Z,989.95
2022-12-28T12:14:51.576Z,989.83
2022-12-28T12:15:51.517Z,989.91
2022-12-28T12:16:51.472Z,989.83
2022-12-28T12:17:51.333Z,989.91
2022-12-28T12:18:51.253Z,989.86
2022-12-28T12:19:51.172Z,989.83
2022-12-28T12:20:51.092Z,989.80
2022-12-28T12:21:51.011Z,989.80
2022-12-28T12:22:50.934Z,989.81
2022-12-28T12:23:50.851Z,989.87
2022-12-28T12:24:50.772Z,989.80
2022-12-28T12:25:50.701Z,989.75
2022-12-28T12:26:50.639Z,989.79
2022-12-28T12:27:50.540Z,989.81
2022-12-28T12:28:50.451Z,989.78
2022-12-28T12:29:50.377Z,989.72